Terminal Aerodrome Forecast
Issued by NWS

Current Version | Previous Version | Text Only | Print | Product List | Glossary On
Versions: 1 2 3 4 5 6 7 8 9 10 11 12 13 14 15
767
FTUS42 KMLB 221736
TAFFPR
TAF
KFPR 221736Z 2218/2318 13015G22KT P6SM FEW030 FEW250
     FM230000 12010KT P6SM FEW030 FEW250
     FM230600 12004KT P6SM SCT025
     FM231400 12011KT P6SM SCT030=

USA.gov is the U.S. government's official web portal to all federal, state and local government web resources and services.